Time;durP1;ratioP1;P1;durP2;ratioP2;P2;SDS_P1;SDS_P2;PMS_P1;PMS_P2;Temp;Humidity;BMP_temperature;BMP_pressure;BME280_temperature;BME280_humidity;BME280_pressure;Samples;Min_cycle;Max_cycle;Signal;HPM_P1;HPM_P2
2021/05/20 00:01:04;;;;;;;6.80;1.70;;;9.60;99.90;;;;;;5109801;28;20204;-59
2021/05/20 00:03:30;;;;;;;4.22;1.30;;;9.60;99.90;;;;;;5110846;28;20548;-59
2021/05/20 00:05:56;;;;;;;5.65;1.48;;;9.60;99.90;;;;;;5109281;28;20694;-59
2021/05/20 00:08:23;;;;;;;5.63;1.42;;;9.60;99.90;;;;;;5108205;28;20209;-59
2021/05/20 00:10:49;;;;;;;6.72;1.27;;;9.50;99.90;;;;;;5111073;28;20173;-59
2021/05/20 00:13:15;;;;;;;2.55;1.38;;;9.60;99.90;;;;;;5106534;28;20195;-58
2021/05/20 00:15:41;;;;;;;10.93;1.80;;;9.60;99.90;;;;;;5105900;28;20173;-58
2021/05/20 00:18:07;;;;;;;4.47;1.23;;;9.60;99.90;;;;;;5110576;28;20196;-59
2021/05/20 00:20:33;;;;;;;6.57;1.80;;;9.60;99.90;;;;;;5103857;28;20621;-58
2021/05/20 00:22:59;;;;;;;5.82;1.58;;;9.60;99.90;;;;;;5106406;28;20181;-58
2021/05/20 00:25:25;;;;;;;3.85;1.02;;;9.60;99.90;;;;;;5102309;28;20546;-58
2021/05/20 00:27:51;;;;;;;10.05;1.77;;;9.60;99.90;;;;;;5102752;28;20173;-59
2021/05/20 00:30:17;;;;;;;8.30;1.65;;;9.60;99.90;;;;;;5110611;28;20538;-59
2021/05/20 00:32:44;;;;;;;8.70;1.55;;;9.60;99.90;;;;;;5108622;28;20223;-59
2021/05/20 00:35:10;;;;;;;9.57;1.70;;;9.60;99.90;;;;;;5107002;28;20625;-59
2021/05/20 00:37:36;;;;;;;5.82;1.65;;;9.60;99.90;;;;;;5111794;28;20600;-60
2021/05/20 00:40:03;;;;;;;2.78;1.25;;;9.60;99.90;;;;;;5111596;28;20625;-59
2021/05/20 00:42:29;;;;;;;5.93;1.52;;;9.60;99.90;;;;;;5111763;28;20173;-59
2021/05/20 00:45:00;;;;;;;6.20;1.55;;;9.60;99.90;;;;;;5108963;28;20208;-59
2021/05/20 00:47:29;;;;;;;6.60;1.52;;;9.60;99.90;;;;;;5105345;28;20549;-59
2021/05/20 00:49:55;;;;;;;6.50;1.83;;;9.60;99.90;;;;;;5112430;28;20545;-59
2021/05/20 00:52:22;;;;;;;5.43;1.50;;;9.60;99.90;;;;;;5107720;28;20574;-59
2021/05/20 00:54:52;;;;;;;11.55;1.58;;;9.60;99.90;;;;;;5112050;28;20172;-59
2021/05/20 00:57:18;;;;;;;6.65;1.50;;;9.60;99.90;;;;;;5109400;28;20176;-58
2021/05/20 00:59:45;;;;;;;8.30;1.70;;;9.60;99.90;;;;;;5109220;28;20176;-58
2021/05/20 01:02:12;;;;;;;5.80;1.42;;;9.60;99.90;;;;;;5110213;28;20176;-58
2021/05/20 01:04:38;;;;;;;8.65;1.30;;;9.60;99.90;;;;;;5105522;28;20212;-58
2021/05/20 01:07:04;;;;;;;6.28;1.73;;;9.50;99.90;;;;;;5112154;28;20193;-58
2021/05/20 01:09:35;;;;;;;6.45;1.52;;;9.50;99.90;;;;;;5107800;28;20191;-58
2021/05/20 01:12:02;;;;;;;3.58;1.63;;;9.50;99.90;;;;;;5110562;28;20189;-59
2021/05/20 01:14:28;;;;;;;4.55;1.58;;;9.50;99.90;;;;;;5104746;28;20165;-59
2021/05/20 01:16:55;;;;;;;3.92;1.17;;;9.50;99.90;;;;;;5109243;28;20177;-59
2021/05/20 01:19:21;;;;;;;7.90;2.03;;;9.60;99.90;;;;;;5109938;28;20180;-60
2021/05/20 01:21:47;;;;;;;5.15;1.65;;;9.60;99.90;;;;;;5104574;28;20211;-59
2021/05/20 01:24:13;;;;;;;5.18;2.53;;;9.60;99.90;;;;;;5109110;28;20201;-59
2021/05/20 01:26:39;;;;;;;4.72;2.00;;;9.60;99.90;;;;;;5111440;28;20182;-59
2021/05/20 01:29:06;;;;;;;10.35;1.98;;;9.60;99.90;;;;;;5110192;28;20181;-59
2021/05/20 01:31:32;;;;;;;6.80;1.98;;;9.50;99.90;;;;;;5110734;28;20618;-59
2021/05/20 01:33:58;;;;;;;7.30;2.05;;;9.60;99.90;;;;;;5115125;28;20220;-59
2021/05/20 01:36:28;;;;;;;5.05;1.50;;;9.60;99.90;;;;;;5112547;28;20613;-59
2021/05/20 01:39:00;;;;;;;4.72;2.05;;;9.60;99.90;;;;;;5104857;28;20181;-58
2021/05/20 01:41:26;;;;;;;7.53;1.83;;;9.50;99.90;;;;;;5108299;28;20164;-59
2021/05/20 01:43:52;;;;;;;6.50;2.15;;;9.50;99.90;;;;;;5109620;28;20562;-58
2021/05/20 01:46:19;;;;;;;8.77;2.08;;;9.50;99.90;;;;;;5107291;28;20179;-59
2021/05/20 01:48:46;;;;;;;8.95;1.80;;;9.50;99.90;;;;;;5111577;28;20187;-59
2021/05/20 01:51:12;;;;;;;4.03;2.10;;;9.50;99.90;;;;;;5108007;28;20173;-59
2021/05/20 01:53:40;;;;;;;6.80;1.45;;;9.50;99.90;;;;;;5109608;28;20188;-58
2021/05/20 01:56:07;;;;;;;5.32;1.77;;;9.50;99.90;;;;;;5107637;28;20636;-59
2021/05/20 01:58:33;;;;;;;6.35;2.00;;;9.50;99.90;;;;;;5112908;28;20192;-58
2021/05/20 02:00:59;;;;;;;10.70;1.77;;;9.50;99.90;;;;;;5109318;28;20184;-58
2021/05/20 02:03:26;;;;;;;4.78;1.70;;;9.50;99.90;;;;;;5111242;28;20196;-58
2021/05/20 02:05:52;;;;;;;8.68;1.88;;;9.50;99.90;;;;;;5114378;28;20185;-58
2021/05/20 02:08:18;;;;;;;8.85;2.20;;;9.50;99.90;;;;;;5114581;28;20203;-59
2021/05/20 02:10:44;;;;;;;9.18;1.83;;;9.50;99.90;;;;;;5113772;28;20180;-59
2021/05/20 02:13:11;;;;;;;5.55;2.08;;;9.50;99.90;;;;;;5104187;28;20173;-59
2021/05/20 02:15:37;;;;;;;10.55;1.95;;;9.50;99.90;;;;;;5113142;28;20374;-59
2021/05/20 02:18:04;;;;;;;4.47;1.52;;;9.50;99.90;;;;;;5104997;28;20194;-59
2021/05/20 02:20:31;;;;;;;6.95;1.73;;;9.50;99.90;;;;;;5112869;28;20529;-59
2021/05/20 02:22:57;;;;;;;11.35;2.08;;;9.50;99.90;;;;;;5113432;28;20192;-59
2021/05/20 02:25:23;;;;;;;4.40;1.70;;;9.50;99.90;;;;;;5112107;28;20703;-59
2021/05/20 02:27:49;;;;;;;9.77;1.98;;;9.50;99.90;;;;;;5114728;28;20191;-58
2021/05/20 02:30:16;;;;;;;11.43;1.88;;;9.50;99.90;;;;;;5111974;28;20184;-59
2021/05/20 02:32:42;;;;;;;8.25;1.75;;;9.50;99.90;;;;;;5114294;28;20212;-58
2021/05/20 02:35:09;;;;;;;4.80;1.58;;;9.50;99.90;;;;;;5113093;28;20206;-58
2021/05/20 02:37:35;;;;;;;10.30;1.70;;;9.50;99.90;;;;;;5107227;28;20179;-58
2021/05/20 02:40:03;;;;;;;5.28;1.83;;;9.50;99.90;;;;;;5114608;28;20169;-58
2021/05/20 02:42:29;;;;;;;8.90;1.80;;;9.50;99.90;;;;;;5107885;28;20621;-58
2021/05/20 02:44:55;;;;;;;4.65;1.58;;;9.50;99.90;;;;;;5112838;28;20212;-58
2021/05/20 02:47:21;;;;;;;8.02;1.92;;;9.50;99.90;;;;;;5114445;27;20230;-58
2021/05/20 02:49:47;;;;;;;4.50;1.58;;;9.50;99.90;;;;;;5110225;28;20551;-59
2021/05/20 02:52:13;;;;;;;5.88;1.67;;;9.50;99.90;;;;;;5109141;28;20177;-58
2021/05/20 02:54:40;;;;;;;4.75;1.77;;;9.50;99.90;;;;;;5109797;28;20542;-58
2021/05/20 02:57:07;;;;;;;4.78;1.67;;;9.50;99.90;;;;;;5113739;27;20193;-58
2021/05/20 02:59:34;;;;;;;9.75;1.85;;;9.50;99.90;;;;;;5113592;28;20184;-58
2021/05/20 03:02:04;;;;;;;5.53;1.98;;;9.50;99.90;;;;;;5106805;28;20184;-59
2021/05/20 03:04:31;;;;;;;6.35;1.40;;;9.50;99.90;;;;;;5108979;28;20557;-58
2021/05/20 03:06:58;;;;;;;10.57;1.83;;;9.50;99.90;;;;;;5112336;28;20547;-58
2021/05/20 03:09:25;;;;;;;7.22;1.48;;;9.50;99.90;;;;;;5111441;28;20177;-58
2021/05/20 03:11:51;;;;;;;8.00;1.45;;;9.40;99.90;;;;;;5109714;28;20180;-59
2021/05/20 03:14:18;;;;;;;6.45;1.42;;;9.40;99.90;;;;;;5104965;28;20180;-58
2021/05/20 03:16:44;;;;;;;6.60;1.75;;;9.40;99.90;;;;;;5110895;28;20177;-59
2021/05/20 03:19:10;;;;;;;6.85;1.30;;;9.40;99.90;;;;;;5110052;28;20188;-60
2021/05/20 03:21:36;;;;;;;6.18;1.48;;;9.40;99.90;;;;;;5108551;28;20804;-59
2021/05/20 03:24:02;;;;;;;4.28;1.50;;;9.40;99.90;;;;;;5111355;28;20204;-59
2021/05/20 03:26:28;;;;;;;3.03;1.20;;;9.40;99.90;;;;;;5105059;28;20177;-59
2021/05/20 03:28:54;;;;;;;9.88;1.30;;;9.40;99.90;;;;;;5111403;28;20173;-59
2021/05/20 03:31:21;;;;;;;5.75;1.70;;;9.40;99.90;;;;;;5105194;28;20190;-60
2021/05/20 03:33:47;;;;;;;7.18;1.50;;;9.40;99.90;;;;;;5112968;28;20215;-59
2021/05/20 03:36:13;;;;;;;5.53;1.60;;;9.50;99.90;;;;;;5106766;28;20173;-59
2021/05/20 03:38:39;;;;;;;7.65;1.45;;;9.50;99.90;;;;;;5107373;28;21596;-59
2021/05/20 03:41:05;;;;;;;12.18;1.40;;;9.50;99.90;;;;;;5095703;28;20184;-59
2021/05/20 03:43:35;;;;;;;5.28;1.40;;;9.50;99.90;;;;;;5101094;28;20177;-56
2021/05/20 03:46:01;;;;;;;2.42;0.98;;;9.50;99.90;;;;;;5108169;28;20181;-56
2021/05/20 03:48:29;;;;;;;7.78;1.50;;;9.50;99.90;;;;;;5112466;28;20177;-56
2021/05/20 03:50:56;;;;;;;4.93;1.50;;;9.50;99.90;;;;;;5110024;28;20191;-55
2021/05/20 03:53:22;;;;;;;7.78;1.15;;;9.60;99.90;;;;;;5108975;28;20164;-56
2021/05/20 03:55:49;;;;;;;4.47;1.30;;;9.60;99.90;;;;;;5111689;28;20527;-58
2021/05/20 03:58:15;;;;;;;6.40;1.65;;;9.50;99.90;;;;;;5110453;28;20184;-58
2021/05/20 04:00:41;;;;;;;5.35;1.52;;;9.50;99.90;;;;;;5105993;28;20637;-58
2021/05/20 04:03:07;;;;;;;10.40;1.42;;;9.50;99.90;;;;;;5100816;28;20192;-58
2021/05/20 04:05:33;;;;;;;6.90;1.55;;;9.50;99.90;;;;;;5098627;27;20580;-57
2021/05/20 04:08:00;;;;;;;5.70;1.35;;;9.60;99.90;;;;;;5102438;27;20193;-57
2021/05/20 04:10:26;;;;;;;7.03;1.35;;;9.60;99.90;;;;;;5096161;27;20208;-57
2021/05/20 04:12:52;;;;;;;9.48;1.67;;;9.60;99.90;;;;;;5099806;28;20177;-57
2021/05/20 04:15:18;;;;;;;8.48;1.42;;;9.60;99.90;;;;;;5112708;28;20188;-57
2021/05/20 04:17:45;;;;;;;9.98;1.90;;;9.60;99.90;;;;;;5113549;28;20176;-57
2021/05/20 04:20:12;;;;;;;4.90;1.70;;;9.60;99.90;;;;;;5113868;28;20172;-57
2021/05/20 04:22:38;;;;;;;8.38;1.75;;;9.60;99.90;;;;;;5113660;28;20184;-58
2021/05/20 04:25:05;;;;;;;8.05;1.42;;;9.60;99.90;;;;;;5113872;28;20204;-57
2021/05/20 04:27:31;;;;;;;5.03;1.25;;;9.60;99.90;;;;;;5106662;28;20169;-59
2021/05/20 04:29:57;;;;;;;5.82;1.58;;;9.60;99.90;;;;;;5106221;28;20511;-59
2021/05/20 04:32:24;;;;;;;8.80;1.55;;;9.70;99.90;;;;;;5097054;28;20178;-60
2021/05/20 04:34:50;;;;;;;8.15;1.40;;;9.70;99.90;;;;;;5096218;28;20211;-59
2021/05/20 04:37:16;;;;;;;12.40;2.00;;;9.70;99.90;;;;;;5105450;28;20176;-58
2021/05/20 04:39:43;;;;;;;5.45;2.38;;;9.70;99.90;;;;;;5111557;28;20187;-58
2021/05/20 04:42:09;;;;;;;9.50;1.80;;;9.70;99.90;;;;;;5113360;28;20164;-58
2021/05/20 04:44:35;;;;;;;9.88;1.50;;;9.70;99.90;;;;;;5111773;28;20216;-58
2021/05/20 04:47:01;;;;;;;12.10;2.20;;;9.70;99.90;;;;;;5112147;28;20185;-58
2021/05/20 04:49:27;;;;;;;5.65;1.33;;;9.80;99.90;;;;;;5113721;28;20169;-58
2021/05/20 04:51:53;;;;;;;8.90;1.73;;;9.80;99.90;;;;;;5113259;28;20169;-58
2021/05/20 04:54:19;;;;;;;4.68;1.42;;;9.80;99.90;;;;;;5113574;28;20165;-58
2021/05/20 04:56:45;;;;;;;15.27;1.90;;;9.80;99.90;;;;;;5113155;28;20184;-58
2021/05/20 04:59:11;;;;;;;8.35;1.48;;;9.90;99.90;;;;;;5114338;28;20621;-58
2021/05/20 05:01:37;;;;;;;14.45;2.17;;;9.90;99.90;;;;;;5115034;28;20177;-58
2021/05/20 05:04:04;;;;;;;15.65;2.00;;;10.00;99.90;;;;;;5114594;28;20656;-59
2021/05/20 05:06:30;;;;;;;10.32;2.03;;;10.00;99.90;;;;;;5113925;28;20177;-58
2021/05/20 05:08:56;;;;;;;11.02;2.08;;;10.00;99.90;;;;;;5111771;28;20177;-58
2021/05/20 05:11:23;;;;;;;11.68;1.70;;;10.00;99.90;;;;;;5115403;28;20180;-59
2021/05/20 05:13:49;;;;;;;8.45;1.50;;;10.10;99.90;;;;;;5112742;28;20165;-57
2021/05/20 05:16:15;;;;;;;8.00;1.65;;;10.10;99.90;;;;;;5107838;28;20188;-58
2021/05/20 05:18:41;;;;;;;9.10;1.63;;;10.10;99.90;;;;;;5101743;28;20188;-58
2021/05/20 05:21:07;;;;;;;14.07;2.25;;;10.10;99.90;;;;;;5099640;28;20180;-58
2021/05/20 05:23:33;;;;;;;6.78;1.42;;;10.20;99.90;;;;;;5099150;28;20176;-58
2021/05/20 05:25:59;;;;;;;8.65;1.60;;;10.20;99.90;;;;;;5106584;28;20209;-59
2021/05/20 05:28:25;;;;;;;7.10;1.90;;;10.20;99.90;;;;;;5100113;28;20177;-58
2021/05/20 05:30:51;;;;;;;5.20;1.77;;;10.30;99.90;;;;;;5095554;28;20177;-59
2021/05/20 05:33:21;;;;;;;17.25;1.90;;;10.30;99.90;;;;;;5099631;28;20213;-59
2021/05/20 05:35:48;;;;;;;5.07;1.65;;;10.40;99.90;;;;;;5098189;28;20165;-58
2021/05/20 05:38:14;;;;;;;6.95;1.65;;;10.50;99.90;;;;;;5096124;28;20185;-59
2021/05/20 05:40:40;;;;;;;8.05;1.67;;;10.50;99.90;;;;;;5095653;28;20538;-63
2021/05/20 05:43:06;;;;;;;5.75;1.50;;;10.50;99.90;;;;;;5096913;28;20174;-58
2021/05/20 05:45:32;;;;;;;13.45;1.70;;;10.60;99.90;;;;;;5098979;28;20251;-59
2021/05/20 05:47:58;;;;;;;11.25;1.50;;;10.60;99.90;;;;;;5101530;28;20178;-58
2021/05/20 05:50:25;;;;;;;13.07;1.55;;;10.60;99.90;;;;;;5102928;28;20621;-59
2021/05/20 05:52:51;;;;;;;6.53;1.55;;;10.60;99.90;;;;;;5103935;28;20180;-59
2021/05/20 05:55:17;;;;;;;11.05;1.63;;;10.50;99.90;;;;;;5107970;28;20549;-58
2021/05/20 05:57:44;;;;;;;13.30;1.70;;;10.50;99.90;;;;;;5114234;28;20173;-58
2021/05/20 06:00:11;;;;;;;4.93;1.60;;;10.40;99.90;;;;;;5092244;28;20173;-58
2021/05/20 06:02:37;;;;;;;17.35;1.80;;;10.50;99.90;;;;;;5093938;28;20181;-58
2021/05/20 06:05:03;;;;;;;10.23;1.75;;;10.50;99.90;;;;;;5095438;28;20216;-60
2021/05/20 06:07:34;;;;;;;6.32;1.60;;;10.70;99.90;;;;;;5090838;28;20570;-60
2021/05/20 06:10:03;;;;;;;10.50;1.52;;;10.80;99.90;;;;;;5091966;28;20193;-60
2021/05/20 06:12:29;;;;;;;14.40;1.77;;;10.80;99.90;;;;;;5096188;28;20185;-61
2021/05/20 06:14:55;;;;;;;10.98;1.55;;;10.80;99.90;;;;;;5095762;28;20174;-60
2021/05/20 06:17:21;;;;;;;13.38;1.88;;;10.80;99.90;;;;;;5095905;28;20621;-61
2021/05/20 06:19:47;;;;;;;12.38;2.20;;;10.90;99.90;;;;;;5095629;28;20174;-61
2021/05/20 06:22:13;;;;;;;32.38;4.07;;;10.80;99.90;;;;;;5095929;28;20180;-61
2021/05/20 06:24:41;;;;;;;29.75;2.58;;;10.70;99.90;;;;;;5095728;28;20204;-61
2021/05/20 06:27:07;;;;;;;12.25;1.48;;;10.70;99.90;;;;;;5095596;28;20215;-61
2021/05/20 06:29:33;;;;;;;5.25;1.55;;;10.80;99.90;;;;;;5094819;28;20185;-61
2021/05/20 06:31:59;;;;;;;11.40;1.63;;;10.90;99.90;;;;;;5095354;28;20196;-61
2021/05/20 06:34:25;;;;;;;5.20;1.27;;;11.00;99.90;;;;;;5094965;28;20225;-61
2021/05/20 06:36:52;;;;;;;9.73;1.73;;;11.00;99.90;;;;;;5095261;28;20618;-61
2021/05/20 06:39:18;;;;;;;5.93;1.23;;;10.90;99.90;;;;;;5095417;28;20173;-60
2021/05/20 06:41:44;;;;;;;11.40;1.55;;;10.80;99.90;;;;;;5095218;28;20176;-62
2021/05/20 06:44:10;;;;;;;10.80;1.63;;;10.70;99.90;;;;;;5095357;28;20165;-61
2021/05/20 06:46:37;;;;;;;14.65;1.65;;;10.70;99.90;;;;;;5095532;28;20169;-61
2021/05/20 06:49:03;;;;;;;12.10;1.73;;;10.70;99.90;;;;;;5095001;28;20185;-60
2021/05/20 06:51:30;;;;;;;12.60;1.80;;;10.80;99.90;;;;;;5094105;28;20173;-60
2021/05/20 06:53:56;;;;;;;11.25;1.80;;;10.80;99.90;;;;;;5094939;28;20180;-60
2021/05/20 06:56:24;;;;;;;14.32;2.67;;;11.00;99.90;;;;;;5095127;28;20173;-60
2021/05/20 07:01:36;;;;;;;7.18;1.42;;;11.40;99.90;;;;;;5101424;28;20164;-61
2021/05/20 07:04:02;;;;;;;8.52;1.30;;;11.50;99.90;;;;;;5094863;28;20184;-61
2021/05/20 07:06:28;;;;;;;12.02;1.65;;;11.50;99.90;;;;;;5095113;28;20212;-60
2021/05/20 07:08:54;;;;;;;10.60;1.70;;;11.50;99.90;;;;;;5094969;28;20196;-61
2021/05/20 07:11:20;;;;;;;11.50;1.98;;;11.20;99.90;;;;;;5094974;28;20196;-61
2021/05/20 07:13:47;;;;;;;7.13;1.63;;;11.20;99.90;;;;;;5094507;28;20174;-61
2021/05/20 07:16:13;;;;;;;6.38;1.60;;;11.30;99.90;;;;;;5094013;28;20178;-61
2021/05/20 07:18:39;;;;;;;13.50;2.17;;;11.20;99.90;;;;;;5094657;28;20177;-60
2021/05/20 07:21:05;;;;;;;9.48;2.20;;;11.20;99.90;;;;;;5092839;28;20177;-61
2021/05/20 07:23:31;;;;;;;12.88;1.80;;;11.30;99.90;;;;;;5094573;28;20176;-61
2021/05/20 07:25:57;;;;;;;10.90;1.60;;;11.40;99.90;;;;;;5094354;28;20205;-61
2021/05/20 07:28:23;;;;;;;12.57;1.70;;;11.60;99.90;;;;;;5094608;28;20174;-61
2021/05/20 07:30:49;;;;;;;16.65;2.90;;;11.90;99.90;;;;;;5094189;28;20173;-60
2021/05/20 07:33:15;;;;;;;10.15;2.03;;;11.70;99.90;;;;;;5094466;28;20209;-61
2021/05/20 07:35:41;;;;;;;13.45;1.98;;;11.70;99.90;;;;;;5094498;28;20526;-61
2021/05/20 07:38:08;;;;;;;15.77;1.92;;;11.70;99.90;;;;;;5094090;28;20177;-61
2021/05/20 07:40:34;;;;;;;14.48;2.05;;;11.80;99.90;;;;;;5094275;28;20177;-61
2021/05/20 07:43:00;;;;;;;13.40;2.13;;;11.90;99.90;;;;;;5092907;28;20177;-61
2021/05/20 07:45:26;;;;;;;13.57;1.70;;;11.90;99.90;;;;;;5094054;28;20204;-60
2021/05/20 07:47:52;;;;;;;12.68;1.58;;;11.70;99.90;;;;;;5093914;28;20177;-61
2021/05/20 07:50:18;;;;;;;7.80;1.90;;;11.70;99.90;;;;;;5093953;28;20195;-61
2021/05/20 07:52:44;;;;;;;11.90;2.03;;;11.80;99.90;;;;;;5094146;28;20177;-61
2021/05/20 07:55:11;;;;;;;15.65;2.00;;;11.60;99.90;;;;;;5093805;28;20176;-61
2021/05/20 07:57:37;;;;;;;13.63;2.30;;;11.60;99.90;;;;;;5093904;28;20161;-61
2021/05/20 08:00:05;;;;;;;12.02;2.13;;;11.50;99.90;;;;;;5093799;28;20172;-61
2021/05/20 08:02:58;;;;;;;9.63;1.98;;;11.60;99.90;;;;;;5093972;28;20166;-61
2021/05/20 08:05:26;;;;;;;12.35;1.80;;;11.70;99.90;;;;;;5093661;28;20220;-61
2021/05/20 08:12:44;;;;;;;12.75;2.92;;;11.50;99.90;;;;;;5093852;28;20181;-61
2021/05/20 08:15:11;;;;;;;11.82;2.03;;;11.40;99.90;;;;;;5093730;28;20637;-61
2021/05/20 08:17:37;;;;;;;11.30;2.50;;;11.40;99.90;;;;;;5092478;28;20625;-62
2021/05/20 08:20:04;;;;;;;12.45;1.92;;;11.40;99.90;;;;;;5093380;28;20169;-61
2021/05/20 08:22:30;;;;;;;7.75;1.85;;;11.20;99.90;;;;;;5093754;28;20200;-61
2021/05/20 08:24:57;;;;;;;20.40;2.67;;;11.20;99.90;;;;;;5093233;28;20189;-61
2021/05/20 08:27:23;;;;;;;9.45;1.90;;;11.20;99.90;;;;;;5093510;28;20165;-61
2021/05/20 08:29:49;;;;;;;15.93;2.22;;;11.20;99.90;;;;;;5093656;28;20526;-62
2021/05/20 08:32:16;;;;;;;18.30;2.20;;;11.20;99.90;;;;;;5092670;28;20177;-61
2021/05/20 08:34:42;;;;;;;10.82;1.80;;;11.20;99.90;;;;;;5093211;28;20673;-61
2021/05/20 08:37:08;;;;;;;17.67;2.20;;;11.30;99.90;;;;;;5093033;28;20184;-61
2021/05/20 08:39:34;;;;;;;18.08;3.00;;;11.40;99.90;;;;;;5092410;28;20165;-61
2021/05/20 08:42:00;;;;;;;13.98;2.13;;;11.40;99.90;;;;;;5093040;28;20170;-61
2021/05/20 08:44:28;;;;;;;14.02;1.98;;;11.40;99.90;;;;;;5093295;28;20176;-62
2021/05/20 08:46:58;;;;;;;10.90;2.53;;;11.10;99.90;;;;;;5091753;28;20201;-61
2021/05/20 08:49:25;;;;;;;13.60;1.92;;;10.90;99.90;;;;;;5093829;28;20192;-61
2021/05/20 08:51:51;;;;;;;11.30;2.53;;;10.90;99.90;;;;;;5093128;28;20185;-62
2021/05/20 08:54:18;;;;;;;11.10;2.30;;;10.90;99.90;;;;;;5092830;28;20162;-62
2021/05/20 08:56:55;;;;;;;13.18;2.67;;;11.00;99.90;;;;;;5093013;28;20169;-62
2021/05/20 08:59:22;;;;;;;17.30;3.17;;;11.20;99.90;;;;;;5093307;28;20165;-61
2021/05/20 09:01:50;;;;;;;10.82;2.13;;;11.40;99.90;;;;;;5093082;28;20181;-61
2021/05/20 09:04:16;;;;;;;21.48;3.35;;;11.40;99.90;;;;;;5092770;28;20173;-60
2021/05/20 09:06:53;;;;;;;15.27;2.67;;;11.40;99.90;;;;;;5091594;28;20204;-61
2021/05/20 09:09:29;;;;;;;15.85;2.70;;;11.30;99.90;;;;;;5092738;28;20633;-61
2021/05/20 09:11:57;;;;;;;10.93;2.20;;;11.30;99.90;;;;;;5092927;28;20188;-62
2021/05/20 09:14:34;;;;;;;15.35;2.53;;;11.30;99.90;;;;;;5091978;28;20161;-61
2021/05/20 09:17:16;;;;;;;13.90;2.30;;;11.50;99.90;;;;;;5092455;28;20567;-61
2021/05/20 09:19:45;;;;;;;16.60;2.65;;;11.70;99.90;;;;;;5092956;28;20161;-61
2021/05/20 09:22:15;;;;;;;11.88;2.30;;;11.90;99.90;;;;;;5091031;28;20182;-61
2021/05/20 09:24:47;;;;;;;13.75;2.63;;;11.90;99.90;;;;;;5091140;28;20197;-61
2021/05/20 09:27:31;;;;;;;16.70;2.95;;;11.80;99.90;;;;;;5092481;28;20173;-61
2021/05/20 09:30:16;;;;;;;10.75;2.53;;;11.60;99.90;;;;;;5092848;28;20181;-61
2021/05/20 09:32:48;;;;;;;16.38;2.78;;;11.60;99.90;;;;;;5092036;28;20212;-61
2021/05/20 09:35:16;;;;;;;9.23;2.22;;;11.60;99.90;;;;;;5092331;28;20672;-61
2021/05/20 09:37:49;;;;;;;15.25;2.50;;;11.60;99.90;;;;;;5091806;28;20170;-61
2021/05/20 09:40:17;;;;;;;10.00;2.28;;;11.50;99.90;;;;;;5092399;28;20180;-61
2021/05/20 09:42:46;;;;;;;10.10;2.20;;;11.50;99.90;;;;;;5092727;28;20165;-61
2021/05/20 09:45:13;;;;;;;20.38;2.63;;;11.50;99.90;;;;;;5095066;28;20218;-61
2021/05/20 09:47:40;;;;;;;11.98;2.20;;;11.60;99.90;;;;;;5096562;28;20174;-61
2021/05/20 09:50:26;;;;;;;21.45;2.53;;;11.60;99.90;;;;;;5096134;28;20165;-61
2021/05/20 09:53:00;;;;;;;15.27;2.22;;;11.80;99.90;;;;;;5096625;28;20185;-61
2021/05/20 09:55:26;;;;;;;8.48;2.00;;;11.90;99.90;;;;;;5096209;28;20157;-61
2021/05/20 09:57:53;;;;;;;15.60;2.10;;;11.80;99.90;;;;;;5096436;28;20176;-61
2021/05/20 10:00:23;;;;;;;7.07;1.88;;;12.10;99.90;;;;;;5095940;28;20177;-61
2021/05/20 10:03:06;;;;;;;15.07;1.92;;;12.20;99.90;;;;;;5096415;28;20174;-62
2021/05/20 10:05:39;;;;;;;10.55;1.73;;;12.40;99.90;;;;;;5096379;28;20197;-61
2021/05/20 10:08:09;;;;;;;9.60;2.42;;;12.30;99.90;;;;;;5096015;28;20209;-62
2021/05/20 10:10:44;;;;;;;8.32;2.05;;;12.60;99.90;;;;;;5096102;28;20169;-62
2021/05/20 10:13:22;;;;;;;9.20;1.60;;;12.70;99.90;;;;;;5112504;27;20168;-62
2021/05/20 10:15:49;;;;;;;16.48;2.58;;;12.50;99.90;;;;;;5129068;27;20619;-62
2021/05/20 10:18:22;;;;;;;14.23;2.45;;;12.20;99.90;;;;;;5136653;27;20172;-62
2021/05/20 10:20:50;;;;;;;13.52;2.40;;;12.40;99.90;;;;;;5137068;27;20640;-62
2021/05/20 10:23:18;;;;;;;14.30;2.17;;;12.50;99.90;;;;;;5133263;27;20169;-62
2021/05/20 10:25:44;;;;;;;12.05;2.42;;;12.50;99.90;;;;;;5106897;27;20222;-62
2021/05/20 10:28:12;;;;;;;10.63;2.08;;;12.40;99.90;;;;;;5097978;28;20185;-61
2021/05/20 10:30:40;;;;;;;10.50;2.17;;;12.30;99.90;;;;;;5106366;28;20169;-61
2021/05/20 10:33:06;;;;;;;11.27;2.00;;;12.10;99.90;;;;;;5101474;28;20205;-60
2021/05/20 10:35:40;;;;;;;12.75;2.10;;;11.90;99.90;;;;;;5094322;28;20181;-61
2021/05/20 10:38:06;;;;;;;8.13;2.10;;;12.00;99.90;;;;;;5096411;27;20169;-60
2021/05/20 10:40:33;;;;;;;12.32;2.00;;;12.10;99.90;;;;;;5110360;27;20176;-61
2021/05/20 10:43:22;;;;;;;11.05;2.03;;;12.20;99.90;;;;;;5103458;28;20547;-61
2021/05/20 10:46:03;;;;;;;14.38;2.00;;;12.40;99.90;;;;;;5104822;28;20196;-60
2021/05/20 10:48:29;;;;;;;11.05;1.95;;;12.50;99.90;;;;;;5103154;28;20164;-61
2021/05/20 10:51:12;;;;;;;162.65;8.13;;;12.70;99.90;;;;;;5114325;28;20534;-61
2021/05/20 10:53:41;;;;;;;11.85;2.00;;;12.80;99.90;;;;;;5115894;28;20164;-61
2021/05/20 10:56:31;;;;;;;10.65;1.75;;;12.70;99.90;;;;;;5114536;28;20176;-61
2021/05/20 10:58:58;;;;;;;8.43;1.95;;;12.90;99.90;;;;;;5115537;28;20172;-61
2021/05/20 11:01:24;;;;;;;27.83;2.42;;;13.00;99.90;;;;;;5110838;28;20172;-62
2021/05/20 11:03:51;;;;;;;19.27;2.72;;;13.30;99.90;;;;;;5105349;28;20173;-62
2021/05/20 11:06:18;;;;;;;14.82;2.60;;;13.70;99.90;;;;;;5103407;28;20555;-62
2021/05/20 11:08:47;;;;;;;57.13;3.10;;;13.50;99.90;;;;;;5104659;28;20652;-62
2021/05/20 11:11:31;;;;;;;19.73;2.40;;;13.00;99.90;;;;;;5102931;28;20185;-60
2021/05/20 11:14:04;;;;;;;11.80;2.10;;;12.50;99.90;;;;;;5094822;28;20169;-61
2021/05/20 11:16:34;;;;;;;13.27;2.17;;;12.30;99.90;;;;;;5094577;28;20168;-61
2021/05/20 11:19:30;;;;;;;14.65;2.20;;;12.20;99.90;;;;;;5113163;28;20179;-62
2021/05/20 11:22:00;;;;;;;12.63;2.17;;;12.40;99.90;;;;;;5114654;28;20164;-62
2021/05/20 11:24:36;;;;;;;12.27;2.40;;;12.50;99.90;;;;;;5114785;28;20515;-61
2021/05/20 11:27:04;;;;;;;9.73;1.50;;;12.80;99.90;;;;;;5113830;28;20196;-61
2021/05/20 11:29:37;;;;;;;17.58;1.98;;;13.10;99.90;;;;;;5114609;28;20172;-61
2021/05/20 11:32:24;;;;;;;17.85;2.28;;;13.20;99.90;;;;;;5112776;28;20543;-61
2021/05/20 11:37:35;;;;;;;10.40;2.00;;;13.40;99.90;;;;;;5121344;28;20156;-61
2021/05/20 11:40:01;;;;;;;10.05;1.50;;;13.30;99.90;;;;;;5113774;28;20163;-62
2021/05/20 11:42:29;;;;;;;16.13;1.63;;;13.10;99.90;;;;;;5113930;28;20165;-62
2021/05/20 11:44:55;;;;;;;12.73;1.85;;;12.90;99.90;;;;;;5113822;28;20176;-62
2021/05/20 11:47:22;;;;;;;7.95;1.52;;;12.70;99.90;;;;;;5108600;28;20568;-62
2021/05/20 11:49:48;;;;;;;9.02;1.38;;;12.60;99.90;;;;;;5114629;28;20172;-62
2021/05/20 11:52:14;;;;;;;19.75;2.17;;;12.70;99.90;;;;;;5114138;28;20172;-61
2021/05/20 11:54:45;;;;;;;38.50;2.20;;;12.40;99.90;;;;;;5113522;28;20176;-62
2021/05/20 11:57:12;;;;;;;10.85;2.00;;;12.50;99.90;;;;;;5113432;28;20506;-63
2021/05/20 11:59:43;;;;;;;6.75;1.50;;;12.40;99.90;;;;;;5114153;28;20613;-61
2021/05/20 12:02:14;;;;;;;8.48;1.50;;;12.40;99.90;;;;;;5114490;28;20490;-62
2021/05/20 12:04:40;;;;;;;5.45;1.20;;;12.50;99.90;;;;;;5113666;28;20191;-61
2021/05/20 12:07:07;;;;;;;11.18;1.95;;;12.40;99.90;;;;;;5112814;28;20219;-61
2021/05/20 12:09:33;;;;;;;6.90;1.48;;;12.30;99.90;;;;;;5100054;28;20177;-62
2021/05/20 12:12:08;;;;;;;87.13;5.47;;;12.40;99.90;;;;;;5104134;28;20176;-61
2021/05/20 12:14:35;;;;;;;8.50;1.50;;;12.40;99.90;;;;;;5102559;28;20148;-63
2021/05/20 12:17:09;;;;;;;8.65;1.60;;;12.30;99.90;;;;;;5089031;28;20173;-61
2021/05/20 12:19:45;;;;;;;18.08;2.05;;;12.10;99.90;;;;;;5096042;28;20164;-61
2021/05/20 12:22:12;;;;;;;6.00;1.73;;;12.10;99.90;;;;;;5099056;28;20530;-63
2021/05/20 12:24:40;;;;;;;9.90;1.67;;;12.10;99.90;;;;;;5109409;28;20183;-62
2021/05/20 12:27:20;;;;;;;10.30;1.73;;;12.00;99.90;;;;;;5113531;28;20559;-62
2021/05/20 12:29:54;;;;;;;13.88;1.80;;;12.00;99.90;;;;;;5112968;28;20157;-63
2021/05/20 12:32:30;;;;;;;12.35;1.50;;;12.00;99.90;;;;;;5105873;28;20639;-63
2021/05/20 12:35:21;;;;;;;7.22;1.15;;;12.10;99.90;;;;;;5104572;28;20231;-63
2021/05/20 12:38:10;;;;;;;7.10;1.35;;;12.10;99.90;;;;;;5104325;28;20184;-62
2021/05/20 12:40:36;;;;;;;5.95;1.65;;;12.10;99.90;;;;;;5103012;28;20167;-62
2021/05/20 12:43:11;;;;;;;15.32;2.03;;;12.30;99.90;;;;;;5103238;28;20169;-62
2021/05/20 12:46:04;;;;;;;7.65;1.55;;;12.30;99.90;;;;;;5102302;28;20622;-62
2021/05/20 12:48:35;;;;;;;12.82;2.28;;;12.20;99.90;;;;;;5097649;28;20645;-62
2021/05/20 12:51:05;;;;;;;14.30;1.63;;;12.00;99.90;;;;;;5103200;28;20185;-62
2021/05/20 12:53:39;;;;;;;8.23;1.30;;;12.00;99.90;;;;;;5100228;28;20236;-62
2021/05/20 12:56:32;;;;;;;9.70;1.50;;;12.10;99.90;;;;;;5112083;28;20177;-62
2021/05/20 12:59:04;;;;;;;7.57;1.55;;;12.00;99.90;;;;;;5101401;28;20575;-62
2021/05/20 13:01:40;;;;;;;6.03;1.40;;;12.00;99.90;;;;;;5112905;28;20168;-63